sensor_id;sensor_type;location;lat;lon;timestamp;temperature;humidity
40059;SHT31;25763;49.972;8.568;2022-07-29T00:02:19;22.01;49.03
40059;SHT31;25763;49.972;8.568;2022-07-29T00:04:45;21.98;49.66
40059;SHT31;25763;49.972;8.568;2022-07-29T00:07:10;21.98;49.74
40059;SHT31;25763;49.972;8.568;2022-07-29T00:09:35;21.94;49.69
40059;SHT31;25763;49.972;8.568;2022-07-29T00:12:01;21.91;49.54
40059;SHT31;25763;49.972;8.568;2022-07-29T00:14:27;21.88;49.74
40059;SHT31;25763;49.972;8.568;2022-07-29T00:16:52;21.84;51.20
40059;SHT31;25763;49.972;8.568;2022-07-29T00:19:18;21.82;50.24
40059;SHT31;25763;49.972;8.568;2022-07-29T00:21:43;21.78;49.56
40059;SHT31;25763;49.972;8.568;2022-07-29T00:24:09;21.74;49.51
40059;SHT31;25763;49.972;8.568;2022-07-29T00:26:34;21.74;49.37
40059;SHT31;25763;49.972;8.568;2022-07-29T00:29:00;21.74;49.65
40059;SHT31;25763;49.972;8.568;2022-07-29T00:31:26;21.71;51.22
40059;SHT31;25763;49.972;8.568;2022-07-29T00:33:52;21.68;52.96
40059;SHT31;25763;49.972;8.568;2022-07-29T00:36:17;21.60;51.96
40059;SHT31;25763;49.972;8.568;2022-07-29T00:38:42;21.58;52.61
40059;SHT31;25763;49.972;8.568;2022-07-29T00:41:11;21.56;51.83
40059;SHT31;25763;49.972;8.568;2022-07-29T00:43:36;21.51;51.07
40059;SHT31;25763;49.972;8.568;2022-07-29T00:46:01;21.50;50.31
40059;SHT31;25763;49.972;8.568;2022-07-29T00:48:27;21.47;52.12
40059;SHT31;25763;49.972;8.568;2022-07-29T00:50:52;21.40;50.36
40059;SHT31;25763;49.972;8.568;2022-07-29T00:53:19;21.39;47.40
40059;SHT31;25763;49.972;8.568;2022-07-29T00:55:45;21.40;47.28
40059;SHT31;25763;49.972;8.568;2022-07-29T00:58:12;21.42;47.17
40059;SHT31;25763;49.972;8.568;2022-07-29T01:00:37;21.38;47.04
40059;SHT31;25763;49.972;8.568;2022-07-29T01:03:06;21.45;46.65
40059;SHT31;25763;49.972;8.568;2022-07-29T01:05:31;21.49;46.39
40059;SHT31;25763;49.972;8.568;2022-07-29T01:07:57;21.47;46.50
40059;SHT31;25763;49.972;8.568;2022-07-29T01:10:23;21.51;46.44
40059;SHT31;25763;49.972;8.568;2022-07-29T01:12:51;21.53;46.02
40059;SHT31;25763;49.972;8.568;2022-07-29T01:15:16;21.53;45.91
40059;SHT31;25763;49.972;8.568;2022-07-29T01:17:53;21.53;45.72
40059;SHT31;25763;49.972;8.568;2022-07-29T01:29:35;21.56;45.10
40059;SHT31;25763;49.972;8.568;2022-07-29T01:31:47;21.53;45.99
40059;SHT31;25763;49.972;8.568;2022-07-29T01:34:41;21.51;46.28
40059;SHT31;25763;49.972;8.568;2022-07-29T01:37:17;21.45;45.99
40059;SHT31;25763;49.972;8.568;2022-07-29T01:39:44;21.42;46.05
40059;SHT31;25763;49.972;8.568;2022-07-29T01:42:22;21.38;46.38
40059;SHT31;25763;49.972;8.568;2022-07-29T01:47:26;21.29;46.36
40059;SHT31;25763;49.972;8.568;2022-07-29T01:49:58;21.22;46.63
40059;SHT31;25763;49.972;8.568;2022-07-29T01:52:38;21.20;46.61
40059;SHT31;25763;49.972;8.568;2022-07-29T01:55:09;21.16;46.47
40059;SHT31;25763;49.972;8.568;2022-07-29T01:57:37;21.15;46.70
40059;SHT31;25763;49.972;8.568;2022-07-29T02:00:04;21.06;46.85
40059;SHT31;25763;49.972;8.568;2022-07-29T02:02:31;21.01;46.94
40059;SHT31;25763;49.972;8.568;2022-07-29T02:04:58;21.01;46.63
40059;SHT31;25763;49.972;8.568;2022-07-29T02:07:27;21.02;47.32
40059;SHT31;25763;49.972;8.568;2022-07-29T02:09:54;20.98;47.54
40059;SHT31;25763;49.972;8.568;2022-07-29T02:12:21;20.94;47.02
40059;SHT31;25763;49.972;8.568;2022-07-29T02:14:51;20.94;46.91
40059;SHT31;25763;49.972;8.568;2022-07-29T02:17:23;20.91;47.12
40059;SHT31;25763;49.972;8.568;2022-07-29T02:19:52;20.95;47.05
40059;SHT31;25763;49.972;8.568;2022-07-29T02:22:18;20.94;47.75
40059;SHT31;25763;49.972;8.568;2022-07-29T02:24:46;20.95;47.29
40059;SHT31;25763;49.972;8.568;2022-07-29T02:27:12;20.90;47.56
40059;SHT31;25763;49.972;8.568;2022-07-29T02:29:39;20.87;47.70
40059;SHT31;25763;49.972;8.568;2022-07-29T02:32:07;20.81;48.14
40059;SHT31;25763;49.972;8.568;2022-07-29T02:34:35;20.74;48.36
40059;SHT31;25763;49.972;8.568;2022-07-29T02:37:03;20.71;48.56
40059;SHT31;25763;49.972;8.568;2022-07-29T02:39:29;20.70;48.62
40059;SHT31;25763;49.972;8.568;2022-07-29T02:42:03;20.67;49.24
40059;SHT31;25763;49.972;8.568;2022-07-29T02:44:30;20.63;49.20
40059;SHT31;25763;49.972;8.568;2022-07-29T02:50:01;20.55;49.87
40059;SHT31;25763;49.972;8.568;2022-07-29T02:53:01;20.45;50.23
40059;SHT31;25763;49.972;8.568;2022-07-29T02:55:51;20.43;50.83
40059;SHT31;25763;49.972;8.568;2022-07-29T02:58:33;20.38;50.86
40059;SHT31;25763;49.972;8.568;2022-07-29T03:01:04;20.32;51.21
40059;SHT31;25763;49.972;8.568;2022-07-29T03:03:36;20.29;51.53
40059;SHT31;25763;49.972;8.568;2022-07-29T03:06:03;20.25;51.76
40059;SHT31;25763;49.972;8.568;2022-07-29T03:08:29;20.22;52.09
40059;SHT31;25763;49.972;8.568;2022-07-29T03:10:55;20.14;52.50
40059;SHT31;25763;49.972;8.568;2022-07-29T03:13:21;20.14;52.83
40059;SHT31;25763;49.972;8.568;2022-07-29T03:15:48;20.08;52.90
40059;SHT31;25763;49.972;8.568;2022-07-29T03:18:14;20.10;53.17
40059;SHT31;25763;49.972;8.568;2022-07-29T03:20:40;20.05;53.35
40059;SHT31;25763;49.972;8.568;2022-07-29T03:23:07;20.00;53.75
40059;SHT31;25763;49.972;8.568;2022-07-29T03:25:32;19.93;53.98
40059;SHT31;25763;49.972;8.568;2022-07-29T03:27:58;19.94;54.08
40059;SHT31;25763;49.972;8.568;2022-07-29T03:30:24;19.84;54.59
40059;SHT31;25763;49.972;8.568;2022-07-29T03:32:50;19.77;54.86
40059;SHT31;25763;49.972;8.568;2022-07-29T03:35:16;19.61;55.45
40059;SHT31;25763;49.972;8.568;2022-07-29T03:37:42;19.61;55.76
40059;SHT31;25763;49.972;8.568;2022-07-29T03:40:10;19.51;55.94
40059;SHT31;25763;49.972;8.568;2022-07-29T03:42:38;19.49;56.28
40059;SHT31;25763;49.972;8.568;2022-07-29T03:45:10;19.39;56.61
40059;SHT31;25763;49.972;8.568;2022-07-29T03:47:40;19.32;56.99
40059;SHT31;25763;49.972;8.568;2022-07-29T03:50:08;19.26;57.52
40059;SHT31;25763;49.972;8.568;2022-07-29T03:52:35;19.15;57.74
40059;SHT31;25763;49.972;8.568;2022-07-29T03:55:01;19.08;58.08
40059;SHT31;25763;49.972;8.568;2022-07-29T03:57:30;19.07;58.02
40059;SHT31;25763;49.972;8.568;2022-07-29T03:59:56;19.12;57.97
40059;SHT31;25763;49.972;8.568;2022-07-29T04:02:22;19.11;58.12
40059;SHT31;25763;49.972;8.568;2022-07-29T04:04:48;19.06;58.63
40059;SHT31;25763;49.972;8.568;2022-07-29T04:07:14;19.07;58.38
40059;SHT31;25763;49.972;8.568;2022-07-29T04:09:41;19.00;58.70
40059;SHT31;25763;49.972;8.568;2022-07-29T04:12:07;19.06;58.35
40059;SHT31;25763;49.972;8.568;2022-07-29T04:14:34;18.96;58.80
40059;SHT31;25763;49.972;8.568;2022-07-29T04:17:00;18.89;59.09
40059;SHT31;25763;49.972;8.568;2022-07-29T04:19:26;18.87;59.14
40059;SHT31;25763;49.972;8.568;2022-07-29T04:21:51;18.85;59.24
40059;SHT31;25763;49.972;8.568;2022-07-29T04:24:17;18.90;59.24
40059;SHT31;25763;49.972;8.568;2022-07-29T04:26:42;19.02;59.41
40059;SHT31;25763;49.972;8.568;2022-07-29T04:29:08;18.87;59.28
40059;SHT31;25763;49.972;8.568;2022-07-29T04:31:33;18.90;59.36
40059;SHT31;25763;49.972;8.568;2022-07-29T04:33:59;18.94;59.12
40059;SHT31;25763;49.972;8.568;2022-07-29T04:36:24;19.03;58.81
40059;SHT31;25763;49.972;8.568;2022-07-29T04:38:49;19.10;58.77
40059;SHT31;25763;49.972;8.568;2022-07-29T04:41:15;19.17;58.55
40059;SHT31;25763;49.972;8.568;2022-07-29T04:43:40;19.17;59.07
40059;SHT31;25763;49.972;8.568;2022-07-29T04:46:06;19.04;58.71
40059;SHT31;25763;49.972;8.568;2022-07-29T04:48:31;19.12;58.58
40059;SHT31;25763;49.972;8.568;2022-07-29T04:50:57;19.35;59.08
40059;SHT31;25763;49.972;8.568;2022-07-29T04:53:22;19.27;57.67
40059;SHT31;25763;49.972;8.568;2022-07-29T04:55:48;19.28;57.42
40059;SHT31;25763;49.972;8.568;2022-07-29T04:58:13;19.38;57.19
40059;SHT31;25763;49.972;8.568;2022-07-29T05:00:39;19.37;56.64
40059;SHT31;25763;49.972;8.568;2022-07-29T05:03:04;19.38;56.70
40059;SHT31;25763;49.972;8.568;2022-07-29T05:05:30;19.51;57.59
40059;SHT31;25763;49.972;8.568;2022-07-29T05:07:55;19.63;57.26
40059;SHT31;25763;49.972;8.568;2022-07-29T05:10:21;19.74;57.61
40059;SHT31;25763;49.972;8.568;2022-07-29T05:12:46;19.74;56.22
40059;SHT31;25763;49.972;8.568;2022-07-29T05:15:12;19.84;57.26
40059;SHT31;25763;49.972;8.568;2022-07-29T05:17:37;19.91;57.16
40059;SHT31;25763;49.972;8.568;2022-07-29T05:20:04;20.00;56.93
40059;SHT31;25763;49.972;8.568;2022-07-29T05:22:29;20.01;56.82
40059;SHT31;25763;49.972;8.568;2022-07-29T05:24:54;19.97;56.34
40059;SHT31;25763;49.972;8.568;2022-07-29T05:27:20;19.94;55.56
40059;SHT31;25763;49.972;8.568;2022-07-29T05:29:45;19.93;55.09
40059;SHT31;25763;49.972;8.568;2022-07-29T05:32:11;20.08;56.31
40059;SHT31;25763;49.972;8.568;2022-07-29T05:34:37;20.20;54.91
40059;SHT31;25763;49.972;8.568;2022-07-29T05:37:02;20.33;55.15
40059;SHT31;25763;49.972;8.568;2022-07-29T05:39:27;20.39;56.41
40059;SHT31;25763;49.972;8.568;2022-07-29T05:41:52;20.32;53.60
40059;SHT31;25763;49.972;8.568;2022-07-29T05:44:18;20.43;54.18
40059;SHT31;25763;49.972;8.568;2022-07-29T05:46:43;20.56;53.92
40059;SHT31;25763;49.972;8.568;2022-07-29T05:49:08;20.63;53.96
40059;SHT31;25763;49.972;8.568;2022-07-29T05:51:34;20.81;54.86
40059;SHT31;25763;49.972;8.568;2022-07-29T05:54:00;20.74;53.29
40059;SHT31;25763;49.972;8.568;2022-07-29T05:56:25;20.94;54.08
40059;SHT31;25763;49.972;8.568;2022-07-29T05:58:51;21.04;52.86
40059;SHT31;25763;49.972;8.568;2022-07-29T06:01:17;21.15;52.94
40059;SHT31;25763;49.972;8.568;2022-07-29T06:03:43;21.23;52.27
40059;SHT31;25763;49.972;8.568;2022-07-29T06:06:09;21.45;53.42
40059;SHT31;25763;49.972;8.568;2022-07-29T06:08:35;21.57;52.50
40059;SHT31;25763;49.972;8.568;2022-07-29T06:11:02;21.51;50.97
40059;SHT31;25763;49.972;8.568;2022-07-29T06:13:27;21.50;50.36
40059;SHT31;25763;49.972;8.568;2022-07-29T06:15:53;21.60;50.78
40059;SHT31;25763;49.972;8.568;2022-07-29T06:18:18;21.64;50.60
40059;SHT31;25763;49.972;8.568;2022-07-29T06:20:46;21.75;50.54
40059;SHT31;25763;49.972;8.568;2022-07-29T06:23:11;21.88;51.04
40059;SHT31;25763;49.972;8.568;2022-07-29T06:25:37;21.61;48.74
40059;SHT31;25763;49.972;8.568;2022-07-29T06:28:03;21.84;50.16
40059;SHT31;25763;49.972;8.568;2022-07-29T06:30:29;21.88;49.69
40059;SHT31;25763;49.972;8.568;2022-07-29T06:32:54;22.02;48.95
40059;SHT31;25763;49.972;8.568;2022-07-29T06:35:20;22.15;48.48
40059;SHT31;25763;49.972;8.568;2022-07-29T06:37:45;22.23;48.25
40059;SHT31;25763;49.972;8.568;2022-07-29T06:40:11;22.23;47.73
40059;SHT31;25763;49.972;8.568;2022-07-29T06:42:55;22.57;46.88
40059;SHT31;25763;49.972;8.568;2022-07-29T06:45:20;22.53;47.48
40059;SHT31;25763;49.972;8.568;2022-07-29T06:47:46;22.54;46.43
40059;SHT31;25763;49.972;8.568;2022-07-29T06:50:11;22.83;46.31
40059;SHT31;25763;49.972;8.568;2022-07-29T06:52:38;22.71;45.92
40059;SHT31;25763;49.972;8.568;2022-07-29T06:55:04;22.95;45.87
40059;SHT31;25763;49.972;8.568;2022-07-29T06:57:30;22.91;45.42
40059;SHT31;25763;49.972;8.568;2022-07-29T06:59:58;22.95;45.49
40059;SHT31;25763;49.972;8.568;2022-07-29T07:02:23;23.24;45.07
40059;SHT31;25763;49.972;8.568;2022-07-29T07:04:49;23.13;44.63
40059;SHT31;25763;49.972;8.568;2022-07-29T07:07:14;23.23;44.18
40059;SHT31;25763;49.972;8.568;2022-07-29T07:09:40;23.06;44.94
40059;SHT31;25763;49.972;8.568;2022-07-29T07:12:05;23.26;44.60
40059;SHT31;25763;49.972;8.568;2022-07-29T07:14:31;23.34;43.90
40059;SHT31;25763;49.972;8.568;2022-07-29T07:16:56;23.38;44.50
40059;SHT31;25763;49.972;8.568;2022-07-29T07:19:21;23.47;45.16
40059;SHT31;25763;49.972;8.568;2022-07-29T07:21:47;23.69;44.41
40059;SHT31;25763;49.972;8.568;2022-07-29T07:24:12;23.63;44.65
40059;SHT31;25763;49.972;8.568;2022-07-29T07:26:38;23.81;44.03
40059;SHT31;25763;49.972;8.568;2022-07-29T07:29:04;23.89;43.93
40059;SHT31;25763;49.972;8.568;2022-07-29T07:31:30;23.88;43.60
40059;SHT31;25763;49.972;8.568;2022-07-29T07:33:56;24.33;43.89
40059;SHT31;25763;49.972;8.568;2022-07-29T07:36:22;24.29;44.48
40059;SHT31;25763;49.972;8.568;2022-07-29T07:38:47;24.22;43.65
40059;SHT31;25763;49.972;8.568;2022-07-29T07:41:13;24.41;45.14
40059;SHT31;25763;49.972;8.568;2022-07-29T07:43:39;23.89;44.40
40059;SHT31;25763;49.972;8.568;2022-07-29T07:46:04;24.14;44.54
40059;SHT31;25763;49.972;8.568;2022-07-29T07:48:30;24.06;43.63
40059;SHT31;25763;49.972;8.568;2022-07-29T07:50:55;24.66;46.12
40059;SHT31;25763;49.972;8.568;2022-07-29T07:53:21;24.99;42.84
40059;SHT31;25763;49.972;8.568;2022-07-29T07:55:46;25.22;44.65
40059;SHT31;25763;49.972;8.568;2022-07-29T07:58:11;25.08;43.98
40059;SHT31;25763;49.972;8.568;2022-07-29T08:00:37;24.73;43.89
40059;SHT31;25763;49.972;8.568;2022-07-29T08:03:02;24.58;44.03
40059;SHT31;25763;49.972;8.568;2022-07-29T08:05:28;24.70;45.37
40059;SHT31;25763;49.972;8.568;2022-07-29T08:07:53;25.06;44.78
40059;SHT31;25763;49.972;8.568;2022-07-29T08:10:19;25.41;45.05
40059;SHT31;25763;49.972;8.568;2022-07-29T08:13:08;25.11;44.38
40059;SHT31;25763;49.972;8.568;2022-07-29T08:15:34;25.31;44.53
40059;SHT31;25763;49.972;8.568;2022-07-29T08:18:00;25.31;43.60
40059;SHT31;25763;49.972;8.568;2022-07-29T08:20:25;25.66;46.07
40059;SHT31;25763;49.972;8.568;2022-07-29T08:22:52;25.98;45.92
40059;SHT31;25763;49.972;8.568;2022-07-29T08:25:17;26.46;49.84
40059;SHT31;25763;49.972;8.568;2022-07-29T08:27:45;26.56;44.45
40059;SHT31;25763;49.972;8.568;2022-07-29T08:30:11;25.94;43.84
40059;SHT31;25763;49.972;8.568;2022-07-29T08:32:36;26.00;44.32
40059;SHT31;25763;49.972;8.568;2022-07-29T08:35:02;25.62;46.28
40059;SHT31;25763;49.972;8.568;2022-07-29T08:37:27;26.04;45.38
40059;SHT31;25763;49.972;8.568;2022-07-29T08:39:53;26.02;44.30
40059;SHT31;25763;49.972;8.568;2022-07-29T08:42:18;26.24;44.80
40059;SHT31;25763;49.972;8.568;2022-07-29T08:44:44;26.33;45.59
40059;SHT31;25763;49.972;8.568;2022-07-29T08:47:13;26.40;46.78
40059;SHT31;25763;49.972;8.568;2022-07-29T08:49:39;26.67;45.02
40059;SHT31;25763;49.972;8.568;2022-07-29T08:52:05;26.77;44.99
40059;SHT31;25763;49.972;8.568;2022-07-29T08:54:30;27.02;44.39
40059;SHT31;25763;49.972;8.568;2022-07-29T08:56:57;27.12;44.48
40059;SHT31;25763;49.972;8.568;2022-07-29T08:59:25;26.84;43.77
40059;SHT31;25763;49.972;8.568;2022-07-29T09:01:53;26.64;43.75
40059;SHT31;25763;49.972;8.568;2022-07-29T09:04:20;26.31;45.62
40059;SHT31;25763;49.972;8.568;2022-07-29T09:06:47;26.11;44.85
40059;SHT31;25763;49.972;8.568;2022-07-29T09:09:13;26.24;45.80
40059;SHT31;25763;49.972;8.568;2022-07-29T09:11:39;26.33;44.53
40059;SHT31;25763;49.972;8.568;2022-07-29T09:14:05;26.70;45.62
40059;SHT31;25763;49.972;8.568;2022-07-29T09:16:51;26.43;45.29
40059;SHT31;25763;49.972;8.568;2022-07-29T09:19:26;26.56;47.95
40059;SHT31;25763;49.972;8.568;2022-07-29T09:21:53;27.09;46.94
40059;SHT31;25763;49.972;8.568;2022-07-29T09:24:45;27.43;45.69
40059;SHT31;25763;49.972;8.568;2022-07-29T09:27:22;27.24;45.06
40059;SHT31;25763;49.972;8.568;2022-07-29T09:30:04;26.80;45.92
40059;SHT31;25763;49.972;8.568;2022-07-29T09:32:31;26.77;46.00
40059;SHT31;25763;49.972;8.568;2022-07-29T09:35:19;26.95;44.98
40059;SHT31;25763;49.972;8.568;2022-07-29T09:37:46;27.14;44.09
40059;SHT31;25763;49.972;8.568;2022-07-29T09:40:26;27.23;46.64
40059;SHT31;25763;49.972;8.568;2022-07-29T09:42:52;27.32;45.58
40059;SHT31;25763;49.972;8.568;2022-07-29T09:45:30;28.02;46.24
40059;SHT31;25763;49.972;8.568;2022-07-29T09:47:57;27.89;43.43
40059;SHT31;25763;49.972;8.568;2022-07-29T09:50:39;27.84;44.43
40059;SHT31;25763;49.972;8.568;2022-07-29T09:53:05;27.77;43.91
40059;SHT31;25763;49.972;8.568;2022-07-29T09:55:31;28.24;43.89
40059;SHT31;25763;49.972;8.568;2022-07-29T09:58:15;28.64;44.71
40059;SHT31;25763;49.972;8.568;2022-07-29T10:00:42;28.58;43.19
40059;SHT31;25763;49.972;8.568;2022-07-29T10:03:08;28.40;43.66
40059;SHT31;25763;49.972;8.568;2022-07-29T10:05:33;28.68;43.64
40059;SHT31;25763;49.972;8.568;2022-07-29T10:07:58;29.03;44.03
40059;SHT31;25763;49.972;8.568;2022-07-29T10:13:00;27.91;43.58
40059;SHT31;25763;49.972;8.568;2022-07-29T10:15:28;28.08;42.97
40059;SHT31;25763;49.972;8.568;2022-07-29T10:17:55;27.92;44.34
40059;SHT31;25763;49.972;8.568;2022-07-29T10:20:22;28.20;44.03
40059;SHT31;25763;49.972;8.568;2022-07-29T10:22:48;28.23;44.97
40059;SHT31;25763;49.972;8.568;2022-07-29T10:25:15;28.64;42.08
40059;SHT31;25763;49.972;8.568;2022-07-29T10:27:42;28.86;42.35
40059;SHT31;25763;49.972;8.568;2022-07-29T10:30:08;29.03;41.08
40059;SHT31;25763;49.972;8.568;2022-07-29T10:32:58;29.22;40.17
40059;SHT31;25763;49.972;8.568;2022-07-29T10:44:01;29.72;41.64
40059;SHT31;25763;49.972;8.568;2022-07-29T10:46:27;29.41;40.60
40059;SHT31;25763;49.972;8.568;2022-07-29T10:49:05;29.26;40.23
40059;SHT31;25763;49.972;8.568;2022-07-29T10:54:35;30.06;40.19
40059;SHT31;25763;49.972;8.568;2022-07-29T10:59:51;30.31;39.85
40059;SHT31;25763;49.972;8.568;2022-07-29T11:07:23;30.69;38.52
40059;SHT31;25763;49.972;8.568;2022-07-29T11:22:59;29.34;41.43
40059;SHT31;25763;49.972;8.568;2022-07-29T11:25:25;29.85;41.34
40059;SHT31;25763;49.972;8.568;2022-07-29T11:27:52;30.45;40.77
40059;SHT31;25763;49.972;8.568;2022-07-29T11:30:19;31.17;39.73
40059;SHT31;25763;49.972;8.568;2022-07-29T11:32:45;31.69;39.02
40059;SHT31;25763;49.972;8.568;2022-07-29T11:35:21;31.53;38.20
40059;SHT31;25763;49.972;8.568;2022-07-29T11:41:25;32.49;38.54
40059;SHT31;25763;49.972;8.568;2022-07-29T11:46:44;31.66;37.58
40059;SHT31;25763;49.972;8.568;2022-07-29T11:49:22;31.62;38.62
40059;SHT31;25763;49.972;8.568;2022-07-29T11:51:51;32.01;38.05
40059;SHT31;25763;49.972;8.568;2022-07-29T11:54:21;31.77;36.79
40059;SHT31;25763;49.972;8.568;2022-07-29T11:56:49;32.00;39.31
40059;SHT31;25763;49.972;8.568;2022-07-29T11:59:15;32.38;38.55
40059;SHT31;25763;49.972;8.568;2022-07-29T12:01:52;31.47;38.03
40059;SHT31;25763;49.972;8.568;2022-07-29T12:04:17;30.84;38.46
40059;SHT31;25763;49.972;8.568;2022-07-29T12:06:42;30.84;38.88
40059;SHT31;25763;49.972;8.568;2022-07-29T12:09:08;30.95;40.38
40059;SHT31;25763;49.972;8.568;2022-07-29T12:11:33;31.03;40.17
40059;SHT31;25763;49.972;8.568;2022-07-29T12:13:59;30.47;39.11
40059;SHT31;25763;49.972;8.568;2022-07-29T12:16:34;29.97;40.05
40059;SHT31;25763;49.972;8.568;2022-07-29T12:19:01;29.90;40.18
40059;SHT31;25763;49.972;8.568;2022-07-29T12:21:28;29.90;40.09
40059;SHT31;25763;49.972;8.568;2022-07-29T12:23:54;29.61;40.44
40059;SHT31;25763;49.972;8.568;2022-07-29T12:26:20;29.33;40.41
40059;SHT31;25763;49.972;8.568;2022-07-29T12:28:46;29.66;41.00
40059;SHT31;25763;49.972;8.568;2022-07-29T12:31:15;29.48;40.90
40059;SHT31;25763;49.972;8.568;2022-07-29T12:33:41;28.96;40.61
40059;SHT31;25763;49.972;8.568;2022-07-29T12:36:07;28.69;41.37
40059;SHT31;25763;49.972;8.568;2022-07-29T12:38:34;28.69;41.69
40059;SHT31;25763;49.972;8.568;2022-07-29T12:41:00;29.11;42.65
40059;SHT31;25763;49.972;8.568;2022-07-29T12:43:25;29.37;40.48
40059;SHT31;25763;49.972;8.568;2022-07-29T12:45:55;29.61;41.35
40059;SHT31;25763;49.972;8.568;2022-07-29T12:48:38;29.47;40.78
40059;SHT31;25763;49.972;8.568;2022-07-29T12:51:05;29.34;41.00
40059;SHT31;25763;49.972;8.568;2022-07-29T12:53:31;29.22;40.98
40059;SHT31;25763;49.972;8.568;2022-07-29T12:55:57;29.34;41.48
40059;SHT31;25763;49.972;8.568;2022-07-29T12:58:37;29.07;41.07
40059;SHT31;25763;49.972;8.568;2022-07-29T13:01:12;28.92;40.66
40059;SHT31;25763;49.972;8.568;2022-07-29T13:03:52;29.02;41.79
40059;SHT31;25763;49.972;8.568;2022-07-29T13:06:38;29.38;42.10
40059;SHT31;25763;49.972;8.568;2022-07-29T13:09:17;29.40;40.24
40059;SHT31;25763;49.972;8.568;2022-07-29T13:11:48;29.47;42.12
40059;SHT31;25763;49.972;8.568;2022-07-29T13:14:33;29.65;41.37
40059;SHT31;25763;49.972;8.568;2022-07-29T13:19:40;29.76;40.74
40059;SHT31;25763;49.972;8.568;2022-07-29T13:22:10;30.34;40.75
40059;SHT31;25763;49.972;8.568;2022-07-29T13:24:50;30.32;40.11
40059;SHT31;25763;49.972;8.568;2022-07-29T13:27:20;30.38;40.46
40059;SHT31;25763;49.972;8.568;2022-07-29T13:29:47;30.34;40.84
40059;SHT31;25763;49.972;8.568;2022-07-29T13:32:14;29.73;39.54
40059;SHT31;25763;49.972;8.568;2022-07-29T13:34:39;29.42;39.84
40059;SHT31;25763;49.972;8.568;2022-07-29T13:37:06;29.59;39.80
40059;SHT31;25763;49.972;8.568;2022-07-29T13:39:31;29.81;42.34
40059;SHT31;25763;49.972;8.568;2022-07-29T13:41:56;30.14;40.23
40059;SHT31;25763;49.972;8.568;2022-07-29T13:44:22;30.38;39.40
40059;SHT31;25763;49.972;8.568;2022-07-29T13:46:47;30.24;40.25
40059;SHT31;25763;49.972;8.568;2022-07-29T13:49:13;29.97;39.88
40059;SHT31;25763;49.972;8.568;2022-07-29T13:51:38;29.97;40.43
40059;SHT31;25763;49.972;8.568;2022-07-29T13:54:04;29.73;40.54
40059;SHT31;25763;49.972;8.568;2022-07-29T13:56:30;29.59;40.24
40059;SHT31;25763;49.972;8.568;2022-07-29T13:58:55;29.52;41.98
40059;SHT31;25763;49.972;8.568;2022-07-29T14:01:21;29.73;41.31
40059;SHT31;25763;49.972;8.568;2022-07-29T14:03:46;30.32;41.03
40059;SHT31;25763;49.972;8.568;2022-07-29T14:06:11;30.44;40.26
40059;SHT31;25763;49.972;8.568;2022-07-29T14:08:37;30.75;40.05
40059;SHT31;25763;49.972;8.568;2022-07-29T14:11:03;30.84;39.28
40059;SHT31;25763;49.972;8.568;2022-07-29T14:13:28;30.68;38.51
40059;SHT31;25763;49.972;8.568;2022-07-29T14:15:53;30.49;40.83
40059;SHT31;25763;49.972;8.568;2022-07-29T14:18:18;30.29;39.37
40059;SHT31;25763;49.972;8.568;2022-07-29T14:20:44;30.03;40.60
40059;SHT31;25763;49.972;8.568;2022-07-29T14:23:09;29.76;40.28
40059;SHT31;25763;49.972;8.568;2022-07-29T14:25:34;29.59;40.83
40059;SHT31;25763;49.972;8.568;2022-07-29T14:28:00;29.34;40.99
40059;SHT31;25763;49.972;8.568;2022-07-29T14:30:25;29.29;42.15
40059;SHT31;25763;49.972;8.568;2022-07-29T14:32:51;29.34;42.49
40059;SHT31;25763;49.972;8.568;2022-07-29T14:35:16;29.41;42.32
40059;SHT31;25763;49.972;8.568;2022-07-29T14:37:42;29.23;42.12
40059;SHT31;25763;49.972;8.568;2022-07-29T14:40:09;29.31;42.00
40059;SHT31;25763;49.972;8.568;2022-07-29T14:42:34;29.37;42.16
40059;SHT31;25763;49.972;8.568;2022-07-29T14:45:01;29.14;42.15
40059;SHT31;25763;49.972;8.568;2022-07-29T14:47:26;28.98;43.58
40059;SHT31;25763;49.972;8.568;2022-07-29T14:49:51;28.86;44.40
40059;SHT31;25763;49.972;8.568;2022-07-29T14:52:17;28.48;45.72
40059;SHT31;25763;49.972;8.568;2022-07-29T14:54:42;28.16;46.62
40059;SHT31;25763;49.972;8.568;2022-07-29T14:57:08;28.36;46.27
40059;SHT31;25763;49.972;8.568;2022-07-29T14:59:33;28.54;46.84
40059;SHT31;25763;49.972;8.568;2022-07-29T15:01:59;28.55;46.14
40059;SHT31;25763;49.972;8.568;2022-07-29T15:04:24;28.63;45.58
40059;SHT31;25763;49.972;8.568;2022-07-29T15:06:50;28.27;46.11
40059;SHT31;25763;49.972;8.568;2022-07-29T15:09:17;28.45;47.00
40059;SHT31;25763;49.972;8.568;2022-07-29T15:11:43;28.54;46.33
40059;SHT31;25763;49.972;8.568;2022-07-29T15:14:08;28.72;44.79
40059;SHT31;25763;49.972;8.568;2022-07-29T15:16:38;28.67;44.43
40059;SHT31;25763;49.972;8.568;2022-07-29T15:19:04;28.61;44.61
40059;SHT31;25763;49.972;8.568;2022-07-29T15:21:30;28.60;44.64
40059;SHT31;25763;49.972;8.568;2022-07-29T15:23:55;28.64;44.24
40059;SHT31;25763;49.972;8.568;2022-07-29T15:26:21;28.61;44.99
40059;SHT31;25763;49.972;8.568;2022-07-29T15:28:46;28.55;43.37
40059;SHT31;25763;49.972;8.568;2022-07-29T15:31:12;28.44;43.18
40059;SHT31;25763;49.972;8.568;2022-07-29T15:33:37;28.41;43.05
40059;SHT31;25763;49.972;8.568;2022-07-29T15:36:03;28.24;42.10
40059;SHT31;25763;49.972;8.568;2022-07-29T15:38:30;28.30;42.67
40059;SHT31;25763;49.972;8.568;2022-07-29T15:40:55;28.19;41.04
40059;SHT31;25763;49.972;8.568;2022-07-29T15:43:21;28.29;42.41
40059;SHT31;25763;49.972;8.568;2022-07-29T15:45:46;28.47;41.45
40059;SHT31;25763;49.972;8.568;2022-07-29T15:48:50;28.39;41.64
40059;SHT31;25763;49.972;8.568;2022-07-29T15:51:16;28.44;41.48
40059;SHT31;25763;49.972;8.568;2022-07-29T15:53:41;28.36;40.71
40059;SHT31;25763;49.972;8.568;2022-07-29T15:56:06;28.39;40.73
40059;SHT31;25763;49.972;8.568;2022-07-29T15:58:32;28.55;41.44
40059;SHT31;25763;49.972;8.568;2022-07-29T16:00:57;28.64;40.86
40059;SHT31;25763;49.972;8.568;2022-07-29T16:03:22;28.47;40.51
40059;SHT31;25763;49.972;8.568;2022-07-29T16:05:48;28.12;42.90
40059;SHT31;25763;49.972;8.568;2022-07-29T16:08:14;27.57;44.98
40059;SHT31;25763;49.972;8.568;2022-07-29T16:10:39;27.27;45.94
40059;SHT31;25763;49.972;8.568;2022-07-29T16:13:05;27.24;46.34
40059;SHT31;25763;49.972;8.568;2022-07-29T16:15:30;27.14;46.47
40059;SHT31;25763;49.972;8.568;2022-07-29T16:17:56;27.08;46.83
40059;SHT31;25763;49.972;8.568;2022-07-29T16:20:21;26.88;47.64
40059;SHT31;25763;49.972;8.568;2022-07-29T16:22:46;26.65;48.86
40059;SHT31;25763;49.972;8.568;2022-07-29T16:25:12;26.91;48.35
40059;SHT31;25763;49.972;8.568;2022-07-29T16:27:37;27.05;47.95
40059;SHT31;25763;49.972;8.568;2022-07-29T16:30:03;27.12;48.28
40059;SHT31;25763;49.972;8.568;2022-07-29T16:32:29;27.01;48.82